Time;durP1;ratioP1;P1;durP2;ratioP2;P2;SDS_P1;SDS_P2;PMS_P1;PMS_P2;Temp;Humidity;BMP_temperature;BMP_pressure;BME280_temperature;BME280_humidity;BME280_pressure;Samples;Min_cycle;Max_cycle;Signal;HPM_P1;HPM_P2
2022/08/25 00:02:12;;;;;;;11.80;4.30;;;;;;;22.43;64.55;99258.55;238935;1190;139782;-58
2022/08/25 00:07:15;;;;;;;8.60;3.80;;;;;;;22.41;64.58;99266.17;239051;1190;139684;-58
2022/08/25 00:12:20;;;;;;;15.50;4.20;;;;;;;22.41;64.62;99258.95;238095;1190;139416;-58
2022/08/25 00:17:23;;;;;;;14.10;4.30;;;;;;;22.41;64.89;99257.88;238666;1192;138851;-59
2022/08/25 00:22:26;;;;;;;9.80;4.30;;;;;;;22.39;64.85;99260.62;238891;1190;139597;-59
2022/08/25 00:27:29;;;;;;;14.40;4.30;;;;;;;22.36;64.84;99262.26;238861;1191;139754;-58
2022/08/25 00:32:32;;;;;;;12.80;3.90;;;;;;;22.30;64.84;99259.77;238862;1192;138940;-58
2022/08/25 00:37:36;;;;;;;13.50;3.50;;;;;;;22.27;64.88;99256.88;237978;1192;140049;-58
2022/08/25 00:42:40;;;;;;;10.00;3.80;;;;;;;22.28;65.15;99251.73;239010;1190;139775;-58
2022/08/25 00:47:43;;;;;;;13.10;4.00;;;;;;;22.30;65.18;99250.08;239042;1190;139299;-58
2022/08/25 00:52:49;;;;;;;14.40;4.10;;;;;;;22.27;65.16;99253.13;238969;1192;139232;-58
2022/08/25 00:58:24;;;;;;;14.10;4.30;;;;;;;22.25;65.23;99252.27;238791;1191;140146;-59
2022/08/25 01:03:32;;;;;;;14.00;4.30;;;;;;;22.25;65.31;99258.34;238822;1192;139945;-59
2022/08/25 01:08:37;;;;;;;11.70;4.20;;;;;;;22.25;65.26;99255.13;238763;1192;140922;-59
2022/08/25 01:13:49;;;;;;;13.60;4.20;;;;;;;22.21;65.26;99249.07;237384;1191;139217;-57
2022/08/25 01:18:56;;;;;;;12.80;4.20;;;;;;;22.15;65.33;99249.54;237321;1190;140245;-58
2022/08/25 01:24:00;;;;;;;15.50;4.50;;;;;;;22.07;65.30;99247.42;239101;1190;139426;-58
2022/08/25 01:29:21;;;;;;;11.00;4.20;;;;;;;22.02;65.39;99240.02;238589;1191;141410;-60
2022/08/25 01:34:30;;;;;;;14.00;4.20;;;;;;;21.99;65.42;99238.39;238890;1190;140022;-59
2022/08/25 01:39:37;;;;;;;9.10;4.20;;;;;;;21.96;65.54;99234.48;238919;1190;141603;-59
2022/08/25 01:44:43;;;;;;;11.00;4.10;;;;;;;21.93;65.52;99228.09;238827;1191;139739;-59
2022/08/25 01:49:46;;;;;;;11.30;4.30;;;;;;;21.91;65.63;99224.90;238777;1192;139302;-58
2022/08/25 01:54:49;;;;;;;10.50;4.00;;;;;;;21.90;65.61;99219.80;239152;1190;140075;-59
2022/08/25 01:59:52;;;;;;;12.30;4.10;;;;;;;21.89;65.77;99210.83;239070;1190;140371;-59
2022/08/25 02:04:55;;;;;;;15.30;4.20;;;;;;;21.91;65.89;99209.57;238531;1192;139789;-59
2022/08/25 02:09:59;;;;;;;15.90;3.90;;;;;;;21.89;65.80;99202.36;238865;1192;140872;-58
2022/08/25 02:15:07;;;;;;;15.90;4.20;;;;;;;21.86;65.78;99202.02;238957;1190;139426;-58
2022/08/25 02:20:09;;;;;;;16.30;4.10;;;;;;;21.85;65.91;99200.86;239029;1190;140084;-59
2022/08/25 02:25:12;;;;;;;17.30;3.90;;;;;;;21.87;66.05;99202.96;238790;1190;139887;-59
2022/08/25 02:30:16;;;;;;;19.20;4.20;;;;;;;21.88;66.07;99202.16;238882;1191;139681;-59
2022/08/25 02:35:19;;;;;;;19.70;4.30;;;;;;;21.85;66.13;99203.17;238776;1192;139138;-59
2022/08/25 02:40:22;;;;;;;19.50;4.40;;;;;;;21.81;66.08;99197.77;237938;1192;142925;-59
2022/08/25 02:45:25;;;;;;;16.50;3.90;;;;;;;21.81;66.22;99198.23;238800;1192;140452;-60
2022/08/25 02:50:29;;;;;;;19.10;4.80;;;;;;;21.82;66.15;99199.93;238467;1191;139612;-59
2022/08/25 02:55:32;;;;;;;13.50;4.60;;;;;;;21.80;66.22;99200.98;238819;1190;141178;-59
2022/08/25 03:00:36;;;;;;;20.70;4.80;;;;;;;21.76;66.26;99200.21;239075;1190;139597;-59
2022/08/25 03:05:40;;;;;;;15.30;4.20;;;;;;;21.71;66.27;99196.20;238821;1190;139764;-58
2022/08/25 03:10:44;;;;;;;14.90;4.20;;;;;;;21.68;66.31;99195.44;238694;1192;140771;-59
2022/08/25 03:15:48;;;;;;;16.10;4.40;;;;;;;21.69;66.40;99192.23;237710;1190;139175;-59
2022/08/25 03:20:53;;;;;;;16.50;4.00;;;;;;;21.70;66.53;99193.02;238447;1190;139936;-59
2022/08/25 03:31:18;;;;;;;25.70;5.60;;;;;;;21.64;66.57;99191.15;238910;1192;139097;-58
2022/08/25 03:36:22;;;;;;;18.40;4.30;;;;;;;21.65;66.71;99192.64;238191;1192;140233;-58
2022/08/25 03:41:28;;;;;;;23.40;4.70;;;;;;;21.67;66.78;99188.25;238857;1190;140895;-58
2022/08/25 03:46:41;;;;;;;20.80;4.80;;;;;;;21.68;66.87;99182.02;238454;1191;140302;-59
2022/08/25 03:51:46;;;;;;;16.70;5.00;;;;;;;21.66;66.72;99181.89;238483;1190;138845;-58
2022/08/25 03:56:50;;;;;;;22.10;5.00;;;;;;;21.60;66.79;99177.83;238752;1190;140626;-57
2022/08/25 04:01:53;;;;;;;17.50;4.50;;;;;;;21.58;66.66;99178.66;238822;1190;141684;-58
2022/08/25 04:06:58;;;;;;;20.10;4.50;;;;;;;21.58;66.92;99186.90;239002;1190;139240;-58
2022/08/25 04:12:01;;;;;;;16.30;4.90;;;;;;;21.60;67.14;99179.29;238253;1191;139192;-60
2022/08/25 04:17:04;;;;;;;16.10;4.50;;;;;;;21.61;67.09;99179.36;237454;1190;150620;-60
2022/08/25 04:22:08;;;;;;;17.10;5.10;;;;;;;21.59;67.14;99184.39;238741;1191;139597;-58
2022/08/25 04:27:11;;;;;;;18.10;5.10;;;;;;;21.60;67.08;99181.13;238307;1191;140985;-58
2022/08/25 04:32:14;;;;;;;19.80;5.40;;;;;;;21.62;67.21;99187.05;239048;1190;139399;-58
2022/08/25 04:37:17;;;;;;;17.60;4.70;;;;;;;21.64;67.40;99194.34;238981;1191;139376;-59
2022/08/25 04:42:20;;;;;;;16.10;4.80;;;;;;;21.65;67.25;99194.61;239043;1191;139506;-58
2022/08/25 04:47:24;;;;;;;17.50;5.40;;;;;;;21.64;67.34;99191.46;238710;1191;139114;-58
2022/08/25 04:52:29;;;;;;;17.80;5.00;;;;;;;21.68;67.36;99188.77;239036;1192;140208;-58
2022/08/25 04:57:32;;;;;;;24.20;5.90;;;;;;;21.75;67.50;99188.73;238789;1191;139882;-58
2022/08/25 05:02:35;;;;;;;17.60;5.00;;;;;;;21.82;67.64;99183.14;239059;1192;139172;-59
2022/08/25 05:07:38;;;;;;;12.90;4.20;;;;;;;21.87;67.67;99182.00;238719;1192;139327;-59
2022/08/25 05:12:41;;;;;;;17.70;4.30;;;;;;;21.92;67.79;99180.16;238940;1192;139756;-58
2022/08/25 05:17:45;;;;;;;17.60;4.30;;;;;;;22.01;67.74;99176.52;237021;1190;140169;-57
2022/08/25 05:22:49;;;;;;;26.40;4.70;;;;;;;22.14;67.98;99175.13;236615;1192;140150;-59
2022/08/25 05:27:52;;;;;;;17.00;4.80;;;;;;;22.25;67.97;99173.93;238712;1191;141891;-58
2022/08/25 05:32:56;;;;;;;20.90;4.60;;;;;;;22.33;67.93;99169.24;238296;1190;139052;-58
2022/08/25 05:37:59;;;;;;;18.60;5.30;;;;;;;22.43;68.07;99167.97;237491;1191;140123;-59
2022/08/25 05:43:02;;;;;;;18.50;4.10;;;;;;;22.54;67.88;99166.68;237940;1190;140521;-59
2022/08/25 05:48:05;;;;;;;17.90;4.30;;;;;;;22.65;67.85;99169.98;239037;1190;139747;-59
2022/08/25 05:53:09;;;;;;;17.60;4.70;;;;;;;22.73;67.82;99170.48;237110;1190;140227;-59
2022/08/25 05:58:12;;;;;;;22.70;4.50;;;;;;;22.78;67.73;99167.07;238598;1190;139798;-58
2022/08/25 06:03:17;;;;;;;24.20;4.80;;;;;;;22.84;67.81;99168.15;237186;1190;140174;-58
2022/08/25 06:08:20;;;;;;;32.60;4.40;;;;;;;22.99;67.84;99165.65;238562;1192;140707;-57
2022/08/25 06:13:23;;;;;;;22.30;5.20;;;;;;;23.09;67.81;99167.27;237102;1192;140006;-58
2022/08/25 06:18:30;;;;;;;18.30;4.60;;;;;;;23.17;67.70;99165.12;237697;1190;139649;-58
2022/08/25 06:23:33;;;;;;;19.80;4.40;;;;;;;23.24;67.73;99167.48;237642;1192;139068;-57
2022/08/25 06:28:36;;;;;;;25.60;5.60;;;;;;;23.30;67.66;99164.85;238296;1191;139707;-58
2022/08/25 06:33:39;;;;;;;37.30;6.60;;;;;;;23.42;67.64;99171.70;238017;1190;139661;-57
2022/08/25 06:38:42;;;;;;;34.90;7.10;;;;;;;23.51;67.55;99177.11;237340;1191;139454;-57
2022/08/25 06:43:45;;;;;;;31.10;6.00;;;;;;;23.56;67.47;99182.95;236889;1190;139871;-61
2022/08/25 06:48:56;;;;;;;31.20;6.00;;;;;;;23.64;67.61;99184.88;238967;1190;139388;-58
2022/08/25 06:53:59;;;;;;;27.30;4.80;;;;;;;23.68;67.43;99184.30;238421;1190;139861;-58
2022/08/25 06:59:04;;;;;;;25.20;4.70;;;;;;;23.80;67.54;99184.03;237707;1192;139949;-56
2022/08/25 07:04:08;;;;;;;;;;;;;;;23.94;67.47;99179.88;238436;1191;140664;-56
2022/08/25 07:09:15;;;;;;;26.70;5.90;;;;;;;24.05;67.49;99177.28;238988;1190;125272;-57
2022/08/25 07:14:18;;;;;;;25.40;5.50;;;;;;;24.14;67.32;99180.23;238255;1191;139618;-58
2022/08/25 07:19:21;;;;;;;19.30;4.70;;;;;;;24.22;67.08;99178.96;237154;1190;139257;-57
2022/08/25 07:24:25;;;;;;;27.50;5.60;;;;;;;24.31;66.88;99174.63;237362;1191;139948;-58
2022/08/25 07:29:28;;;;;;;27.80;5.80;;;;;;;24.43;66.94;99177.01;237023;1191;143295;-61
2022/08/25 07:40:17;;;;;;;27.30;5.40;;;;;;;24.60;66.54;99184.48;238730;1190;139120;-58
2022/08/25 07:45:29;;;;;;;22.00;4.70;;;;;;;24.67;66.40;99184.98;238732;1191;139353;-57
2022/08/25 07:50:32;;;;;;;29.90;6.20;;;;;;;24.77;66.37;99186.63;238590;1191;140319;-58
2022/08/25 07:55:36;;;;;;;21.90;5.10;;;;;;;24.86;66.23;99186.15;238134;1191;139576;-58
2022/08/25 08:00:40;;;;;;;28.90;5.50;;;;;;;24.92;66.18;99183.75;238969;1190;139865;-57
2022/08/25 08:05:44;;;;;;;20.20;5.60;;;;;;;24.99;65.97;99187.13;238821;1191;141246;-58
2022/08/25 08:10:47;;;;;;;22.30;5.50;;;;;;;25.07;65.88;99184.58;238859;1190;140190;-57
2022/08/25 08:16:15;;;;;;;30.10;6.40;;;;;;;25.12;65.73;99184.98;237901;1190;139428;-60
2022/08/25 08:21:31;;;;;;;30.90;6.20;;;;;;;25.21;65.48;99181.02;238360;1190;140054;-58
2022/08/25 08:26:34;;;;;;;22.20;6.00;;;;;;;25.24;65.37;99181.36;239021;1191;140387;-58
2022/08/25 08:31:58;;;;;;;24.40;6.40;;;;;;;25.32;65.24;99179.93;238935;1191;139262;-57
2022/08/25 08:37:02;;;;;;;27.60;5.60;;;;;;;25.39;65.14;99179.27;238806;1190;140968;-57
2022/08/25 08:42:35;;;;;;;31.00;5.70;;;;;;;25.46;64.98;99180.85;238126;1192;139439;-61
2022/08/25 08:47:54;;;;;;;24.30;5.80;;;;;;;25.58;64.91;99179.30;238481;1192;139887;-58
2022/08/25 08:53:08;;;;;;;33.60;6.40;;;;;;;25.64;64.66;99168.85;238938;1191;140038;-58
2022/08/25 08:58:23;;;;;;;35.60;5.90;;;;;;;25.72;64.64;99167.16;237712;1192;139609;-62
2022/08/25 09:03:42;;;;;;;29.70;7.10;;;;;;;25.79;64.52;99168.86;238577;1192;139971;-58
2022/08/25 09:08:47;;;;;;;33.50;6.40;;;;;;;25.83;64.58;99167.70;238913;1192;139047;-58
2022/08/25 09:14:09;;;;;;;28.20;5.90;;;;;;;25.91;64.44;99167.57;238829;1192;139091;-58
2022/08/25 09:19:38;;;;;;;32.40;6.90;;;;;;;26.03;64.33;99167.46;237798;1190;139433;-58
2022/08/25 09:24:57;;;;;;;26.10;7.10;;;;;;;26.15;64.23;99162.39;239058;1190;139056;-58
2022/08/25 09:30:07;;;;;;;31.90;6.60;;;;;;;26.25;64.00;99163.39;238951;1190;139218;-57
2022/08/25 09:35:18;;;;;;;28.70;6.60;;;;;;;26.34;63.82;99155.60;238911;1190;140131;-59
2022/08/25 09:40:23;;;;;;;30.00;6.80;;;;;;;26.42;63.49;99151.52;238496;1190;139439;-57
2022/08/25 09:45:42;;;;;;;21.90;6.30;;;;;;;26.51;63.42;99146.05;238393;1192;139946;-58
2022/08/25 09:50:45;;;;;;;26.60;6.50;;;;;;;26.65;63.33;99142.06;238787;1190;139892;-58
2022/08/25 09:56:03;;;;;;;36.60;7.90;;;;;;;26.78;63.12;99140.52;238477;1191;140001;-57
2022/08/25 10:01:14;;;;;;;31.10;6.90;;;;;;;26.96;63.17;99133.38;238934;1190;140128;-58
2022/08/25 10:06:18;;;;;;;28.40;7.40;;;;;;;27.16;62.97;99127.36;238854;1192;139317;-58
2022/08/25 10:11:43;;;;;;;;;;;;;;;27.39;62.65;99126.89;237722;1190;139691;-58
2022/08/25 10:16:48;;;;;;;;;;;;;;;27.61;62.29;99116.86;239012;1190;125197;-58
2022/08/25 10:22:08;;;;;;;30.20;6.70;;;;;;;27.81;62.04;99113.98;239143;1190;128258;-58
2022/08/25 10:27:27;;;;;;;23.20;6.40;;;;;;;28.01;61.63;99110.27;238407;1191;139869;-58
2022/08/25 10:32:40;;;;;;;29.00;7.30;;;;;;;28.16;61.20;99106.41;236949;1190;139702;-57
2022/08/25 10:38:06;;;;;;;31.90;6.60;;;;;;;28.29;60.97;99101.88;239026;1190;140714;-58
2022/08/25 10:43:24;;;;;;;34.00;6.90;;;;;;;28.47;60.75;99094.52;238974;1190;139621;-58
2022/08/25 10:49:01;;;;;;;32.40;6.80;;;;;;;28.64;60.34;99095.42;238783;1192;139326;-58
2022/08/25 10:54:13;;;;;;;29.40;6.30;;;;;;;28.72;59.82;99091.79;238916;1192;138991;-58
2022/08/25 10:59:29;;;;;;;25.90;6.40;;;;;;;28.80;59.62;99086.95;238781;1190;139414;-58
2022/08/25 11:04:41;;;;;;;25.00;6.90;;;;;;;28.92;59.30;99083.69;238739;1190;139485;-58
2022/08/25 11:09:47;;;;;;;32.50;6.10;;;;;;;29.09;59.02;99079.30;238973;1190;139558;-58
2022/08/25 11:14:57;;;;;;;33.10;6.80;;;;;;;29.29;58.99;99072.42;238655;1192;139639;-58
2022/08/25 11:20:11;;;;;;;34.70;6.30;;;;;;;29.44;58.25;99071.48;239062;1191;139703;-58
2022/08/25 11:25:33;;;;;;;27.40;6.80;;;;;;;29.63;58.20;99066.04;238299;1190;139705;-59
2022/08/25 11:30:37;;;;;;;29.00;6.30;;;;;;;29.71;57.48;99064.10;238907;1190;139637;-59
2022/08/25 11:35:47;;;;;;;22.10;5.60;;;;;;;29.81;57.20;99058.32;238867;1192;139648;-59
2022/08/25 11:41:06;;;;;;;27.50;5.60;;;;;;;29.96;56.71;99050.85;238943;1190;141270;-58
2022/08/25 11:46:34;;;;;;;24.20;6.10;;;;;;;30.12;56.34;99047.45;238862;1190;139631;-58
2022/08/25 11:51:44;;;;;;;23.40;5.80;;;;;;;30.34;56.25;99043.81;237847;1192;138772;-59
2022/08/25 11:56:58;;;;;;;30.00;6.50;;;;;;;30.53;55.81;99041.34;238677;1190;139679;-59
2022/08/25 12:02:01;;;;;;;31.30;5.80;;;;;;;30.74;55.39;99033.25;238486;1192;138993;-60
2022/08/25 12:07:04;;;;;;;27.80;6.20;;;;;;;30.85;54.77;99026.79;238703;1190;139737;-58
2022/08/25 12:12:36;;;;;;;26.70;5.90;;;;;;;31.09;54.83;99024.31;238853;1192;139124;-58
2022/08/25 12:17:39;;;;;;;27.90;6.30;;;;;;;31.39;54.42;99018.85;237355;1192;139004;-58
2022/08/25 12:22:53;;;;;;;28.30;6.20;;;;;;;31.57;53.87;99017.99;238797;1192;139055;-58
2022/08/25 12:28:34;;;;;;;24.10;5.80;;;;;;;31.70;53.25;99014.38;238922;1190;139414;-59
2022/08/25 12:34:09;;;;;;;29.90;6.30;;;;;;;31.85;53.08;99010.81;238348;1192;140162;-59
2022/08/25 12:39:14;;;;;;;29.10;6.60;;;;;;;32.06;52.53;99004.56;238870;1190;139488;-58
2022/08/25 12:44:41;;;;;;;19.30;6.60;;;;;;;32.18;52.13;98999.30;237953;1191;140494;-58
2022/08/25 12:49:45;;;;;;;31.70;6.60;;;;;;;32.32;51.85;98999.83;238189;1192;139399;-59
2022/08/25 12:55:02;;;;;;;22.70;5.80;;;;;;;32.47;51.55;98996.51;238832;1192;139358;-58
2022/08/25 13:00:17;;;;;;;32.60;5.90;;;;;;;32.59;51.24;98992.14;238714;1190;138814;-58
2022/08/25 13:05:38;;;;;;;32.80;5.60;;;;;;;32.71;50.90;98984.59;238083;1191;140164;-58
2022/08/25 13:10:44;;;;;;;27.50;6.10;;;;;;;32.73;49.76;98980.17;238365;1192;139384;-58
2022/08/25 13:16:07;;;;;;;21.10;5.40;;;;;;;32.87;49.99;98979.80;237806;1190;139859;-58
2022/08/25 13:21:22;;;;;;;29.20;5.80;;;;;;;32.98;49.62;98977.15;238937;1190;139710;-57
2022/08/25 13:26:32;;;;;;;30.60;5.60;;;;;;;33.12;49.24;98977.20;238705;1191;139239;-60
2022/08/25 13:31:38;;;;;;;25.30;5.90;;;;;;;33.20;48.72;98973.34;239019;1190;139673;-58
2022/08/25 13:42:16;;;;;;;26.00;5.80;;;;;;;33.32;47.82;98979.05;238740;1192;139409;-57
2022/08/25 13:47:34;;;;;;;23.60;5.40;;;;;;;33.40;47.82;98978.27;238758;1192;138741;-59
2022/08/25 13:52:53;;;;;;;22.60;5.50;;;;;;;33.35;47.07;98977.12;238638;1190;140130;-59
2022/08/25 13:57:58;;;;;;;34.50;6.10;;;;;;;33.29;47.10;98970.15;238652;1192;139275;-60
2022/08/25 14:03:02;;;;;;;30.00;6.00;;;;;;;33.22;46.77;98968.19;238299;1192;139007;-59
2022/08/25 14:08:33;;;;;;;29.00;6.00;;;;;;;33.16;46.65;98963.16;238600;1192;139471;-58
2022/08/25 14:13:39;;;;;;;36.20;6.00;;;;;;;33.03;46.14;98956.27;238119;1190;141318;-59
2022/08/25 14:18:49;;;;;;;25.70;6.90;;;;;;;32.90;46.12;98954.12;238847;1191;141811;-59
2022/08/25 14:23:54;;;;;;;33.10;6.00;;;;;;;32.72;45.52;98952.98;236960;1192;138922;-60
2022/08/25 14:28:57;;;;;;;31.80;6.40;;;;;;;32.52;45.66;98945.29;238222;1192;139161;-59
2022/08/25 14:34:08;;;;;;;46.90;8.00;;;;;;;32.29;45.88;98941.19;238626;1190;139962;-60
2022/08/25 14:39:14;;;;;;;29.90;6.10;;;;;;;31.97;45.80;98937.69;238439;1190;139631;-59
2022/08/25 14:44:17;;;;;;;33.30;6.00;;;;;;;31.62;45.92;98933.80;238559;1190;138931;-60
2022/08/25 14:49:31;;;;;;;36.90;6.80;;;;;;;31.36;46.32;98936.15;238636;1191;139968;-60
2022/08/25 14:54:35;;;;;;;28.20;6.60;;;;;;;31.13;46.49;98933.60;238712;1191;139241;-59
2022/08/25 14:59:39;;;;;;;;;;;;;;;30.94;46.45;98930.40;238149;1191;139514;-59
2022/08/25 15:05:05;;;;;;;35.20;7.00;;;;;;;30.73;46.47;98930.76;238813;1190;125917;-60
2022/08/25 15:10:09;;;;;;;29.90;6.30;;;;;;;30.55;46.72;98934.19;238284;1190;139514;-59
2022/08/25 15:15:16;;;;;;;30.30;6.60;;;;;;;30.42;47.01;98928.53;239000;1190;139815;-59
2022/08/25 15:20:19;;;;;;;22.60;6.10;;;;;;;30.29;47.23;98919.86;238795;1191;140339;-60
2022/08/25 15:25:23;;;;;;;36.20;6.90;;;;;;;30.12;47.13;98924.34;238133;1191;139581;-59
2022/08/25 15:30:26;;;;;;;36.20;7.60;;;;;;;29.99;47.60;98924.57;238929;1190;139765;-59
2022/08/25 15:35:33;;;;;;;25.30;6.60;;;;;;;29.90;47.81;98932.79;238627;1192;139838;-60
2022/08/25 15:40:37;;;;;;;25.20;6.70;;;;;;;29.83;47.96;98932.11;238629;1192;139726;-59
2022/08/25 15:45:41;;;;;;;31.10;7.10;;;;;;;29.77;48.20;98929.05;238756;1191;139377;-60
2022/08/25 15:50:44;;;;;;;34.30;7.20;;;;;;;29.72;48.12;98925.28;238852;1191;139005;-59
2022/08/25 15:55:48;;;;;;;29.30;6.90;;;;;;;29.67;48.34;98921.77;238813;1192;139033;-60
2022/08/25 16:00:55;;;;;;;29.90;7.10;;;;;;;29.61;48.52;98921.21;238862;1190;138902;-59
2022/08/25 16:06:03;;;;;;;22.70;6.80;;;;;;;29.52;48.62;98915.25;238888;1190;142315;-60
2022/08/25 16:11:16;;;;;;;20.50;7.00;;;;;;;29.46;48.80;98914.79;238601;1190;139195;-60
2022/08/25 16:16:22;;;;;;;26.10;6.30;;;;;;;29.43;48.85;98919.44;238358;1190;139437;-60
2022/08/25 16:21:32;;;;;;;27.40;6.70;;;;;;;29.38;49.02;98921.34;238101;1190;139335;-60
2022/08/25 16:26:41;;;;;;;25.30;6.50;;;;;;;29.33;49.14;98912.58;238897;1191;139800;-60
2022/08/25 16:31:50;;;;;;;23.60;6.40;;;;;;;29.28;48.97;98914.21;238640;1192;139722;-60
2022/08/25 16:36:57;;;;;;;21.20;6.90;;;;;;;29.21;49.21;98908.89;238893;1192;139759;-60
2022/08/25 16:42:00;;;;;;;22.60;6.60;;;;;;;29.14;49.42;98908.63;238847;1191;140132;-60
2022/08/25 16:47:05;;;;;;;22.00;6.90;;;;;;;29.08;49.62;98913.17;238815;1190;139518;-61
2022/08/25 16:57:33;;;;;;;31.20;7.50;;;;;;;28.95;49.67;98914.64;238753;1192;139461;-60
2022/08/25 17:02:36;;;;;;;22.10;6.20;;;;;;;28.87;49.87;98919.64;238825;1190;139221;-60
2022/08/25 17:07:40;;;;;;;34.00;7.30;;;;;;;28.77;49.99;98924.43;238986;1190;139976;-60
2022/08/25 17:12:43;;;;;;;32.90;7.50;;;;;;;28.66;50.00;98928.88;239020;1190;139323;-60
2022/08/25 17:17:46;;;;;;;49.10;8.60;;;;;;;28.55;50.08;98926.39;238823;1192;140595;-60
2022/08/25 17:22:49;;;;;;;48.40;9.00;;;;;;;28.45;50.15;98925.41;238953;1191;140847;-60
2022/08/25 17:27:52;;;;;;;31.60;7.80;;;;;;;28.37;50.20;98928.09;238891;1190;139768;-59
2022/08/25 17:32:55;;;;;;;44.10;9.00;;;;;;;28.27;50.22;98931.36;238871;1190;139624;-60
2022/08/25 17:37:58;;;;;;;38.90;7.90;;;;;;;28.17;50.24;98929.99;238846;1192;140934;-60
2022/08/25 17:43:02;;;;;;;33.60;7.80;;;;;;;28.09;50.24;98927.66;238723;1191;141695;-60
2022/08/25 17:48:07;;;;;;;44.20;9.00;;;;;;;28.00;50.36;98930.23;237723;1191;138778;-58
2022/08/25 17:53:12;;;;;;;36.20;7.50;;;;;;;27.88;50.34;98929.52;238911;1191;141231;-58
2022/08/25 17:58:18;;;;;;;35.70;7.50;;;;;;;27.75;50.36;98927.55;237874;1191;139150;-61
2022/08/25 18:03:21;;;;;;;40.20;8.00;;;;;;;27.63;50.56;98921.92;237570;1192;139646;-57
2022/08/25 18:08:25;;;;;;;28.50;7.90;;;;;;;27.51;50.70;98922.45;239027;1191;140206;-58
2022/08/25 18:13:37;;;;;;;21.80;5.90;;;;;;;27.40;50.82;98927.05;238150;1191;139818;-58
2022/08/25 18:18:41;;;;;;;30.50;7.60;;;;;;;27.28;50.93;98926.02;239118;1190;139665;-57
2022/08/25 18:23:44;;;;;;;22.60;6.80;;;;;;;27.18;51.23;98927.58;238300;1190;139780;-60
2022/08/25 18:28:48;;;;;;;20.50;6.60;;;;;;;27.09;51.46;98927.98;238612;1192;141950;-61
2022/08/25 18:33:51;;;;;;;30.30;6.40;;;;;;;27.01;51.58;98926.02;237372;1192;139281;-59
2022/08/25 18:44:18;;;;;;;22.70;6.70;;;;;;;26.84;52.30;98930.98;238607;1191;138935;-59
2022/08/25 18:49:22;;;;;;;25.20;7.10;;;;;;;26.77;52.46;98935.73;237671;1192;139723;-60
2022/08/25 18:54:30;;;;;;;24.90;7.20;;;;;;;26.72;52.68;98937.55;238568;1190;139181;-59
2022/08/25 18:59:38;;;;;;;18.90;7.20;;;;;;;26.64;52.95;98932.29;238990;1192;139029;-59
2022/08/25 19:04:41;;;;;;;21.50;7.00;;;;;;;26.54;53.06;98931.61;238763;1192;139593;-59
2022/08/25 19:09:44;;;;;;;23.90;7.70;;;;;;;26.45;53.27;98929.55;238689;1192;139442;-59
2022/08/25 19:14:47;;;;;;;30.20;7.70;;;;;;;26.36;53.45;98933.55;237682;1191;139026;-59
2022/08/25 19:19:50;;;;;;;24.50;7.40;;;;;;;26.28;53.69;98930.27;238598;1190;139774;-59
2022/08/25 19:24:53;;;;;;;27.50;7.90;;;;;;;26.18;53.84;98927.89;238861;1192;141194;-59
2022/08/25 19:29:56;;;;;;;18.60;7.00;;;;;;;26.07;54.11;98927.30;238823;1192;138844;-59
2022/08/25 19:35:00;;;;;;;25.80;7.50;;;;;;;25.96;54.24;98924.23;238831;1192;139353;-60
2022/08/25 19:40:06;;;;;;;23.00;8.30;;;;;;;25.87;54.52;98927.00;238416;1191;139636;-60
2022/08/25 19:45:11;;;;;;;24.00;7.50;;;;;;;25.77;54.74;98929.52;236980;1192;139923;-59
2022/08/25 19:50:16;;;;;;;26.50;7.80;;;;;;;25.68;54.88;98932.33;238518;1192;139231;-59
2022/08/25 19:55:20;;;;;;;23.60;7.50;;;;;;;25.56;55.18;98929.48;237773;1192;139323;-60
2022/08/25 20:00:30;;;;;;;15.60;7.70;;;;;;;25.46;55.29;98934.91;238889;1192;139064;-59
2022/08/25 20:05:35;;;;;;;22.00;7.10;;;;;;;25.41;55.64;98937.39;238171;1192;140807;-59
2022/08/25 20:10:39;;;;;;;25.00;7.80;;;;;;;25.39;55.72;98941.77;238849;1191;139109;-59
2022/08/25 20:15:43;;;;;;;;;;;;;;;25.38;55.79;98935.50;238873;1191;138793;-59
2022/08/25 20:20:46;;;;;;;27.70;8.20;;;;;;;25.34;55.77;98938.61;239100;1190;126431;-59
2022/08/25 20:25:50;;;;;;;18.90;7.30;;;;;;;25.29;55.61;98935.61;238996;1192;139048;-59
2022/08/25 20:30:53;;;;;;;21.90;7.70;;;;;;;25.23;55.63;98936.14;236811;1192;138987;-59
2022/08/25 20:35:56;;;;;;;24.60;7.40;;;;;;;25.16;55.93;98937.77;238405;1190;139054;-59
2022/08/25 20:41:01;;;;;;;17.60;7.00;;;;;;;25.08;55.85;98939.52;239053;1190;139822;-60
2022/08/25 20:46:06;;;;;;;26.70;6.90;;;;;;;24.98;55.87;98946.86;239016;1191;139025;-59
2022/08/25 20:51:10;;;;;;;18.80;7.10;;;;;;;24.89;55.95;98944.14;238708;1192;139478;-59
2022/08/25 20:56:16;;;;;;;23.00;7.50;;;;;;;24.82;55.94;98945.80;238688;1190;139407;-59
2022/08/25 21:01:22;;;;;;;21.80;7.40;;;;;;;24.75;55.90;98948.95;238576;1190;139858;-59
2022/08/25 21:06:25;;;;;;;13.80;6.90;;;;;;;24.68;55.84;98947.54;239039;1190;141116;-59
2022/08/25 21:11:28;;;;;;;18.30;7.70;;;;;;;24.63;55.89;98947.60;238895;1191;139008;-59
2022/08/25 21:16:35;;;;;;;19.40;6.40;;;;;;;24.57;55.75;98950.67;238612;1191;139090;-60
2022/08/25 21:21:39;;;;;;;18.30;6.10;;;;;;;24.51;55.63;98945.41;238066;1192;140127;-59
2022/08/25 21:26:44;;;;;;;16.90;6.80;;;;;;;24.46;55.56;98942.83;238378;1191;139838;-60
2022/08/25 21:31:51;;;;;;;17.40;6.60;;;;;;;24.42;55.56;98939.65;238239;1190;139573;-58
2022/08/25 21:36:57;;;;;;;20.30;6.20;;;;;;;24.35;55.60;98946.92;237557;1191;139705;-60
2022/08/25 21:42:02;;;;;;;13.50;6.00;;;;;;;24.29;55.69;98946.94;239098;1190;139051;-59
2022/08/25 21:47:05;;;;;;;15.10;6.50;;;;;;;24.25;55.53;98940.69;238968;1190;139016;-60
2022/08/25 21:52:09;;;;;;;17.10;6.30;;;;;;;24.23;55.58;98940.95;238685;1192;139252;-59
2022/08/25 21:57:12;;;;;;;13.20;6.40;;;;;;;24.18;55.32;98937.97;238433;1190;139454;-59
2022/08/25 22:02:16;;;;;;;16.30;6.10;;;;;;;24.12;55.32;98931.23;238609;1190;139055;-59
2022/08/25 22:07:24;;;;;;;18.80;6.10;;;;;;;24.08;55.38;98933.17;239022;1190;139687;-59
2022/08/25 22:12:27;;;;;;;15.40;6.30;;;;;;;24.03;55.44;98932.96;239100;1190;139193;-60
2022/08/25 22:17:31;;;;;;;15.10;6.20;;;;;;;23.97;55.41;98933.20;237793;1192;139336;-59
2022/08/25 22:22:34;;;;;;;13.90;5.70;;;;;;;23.92;55.27;98932.02;238507;1192;138867;-59
2022/08/25 22:27:37;;;;;;;17.40;6.90;;;;;;;23.87;55.22;98935.14;238526;1190;139337;-60
2022/08/25 22:32:41;;;;;;;10.00;5.70;;;;;;;23.82;55.18;98932.09;239004;1192;139622;-59
2022/08/25 22:37:50;;;;;;;13.00;5.80;;;;;;;23.78;55.24;98928.56;237160;1192;139757;-60
2022/08/25 22:42:54;;;;;;;15.80;5.70;;;;;;;23.73;55.26;98927.05;238894;1192;140390;-59
2022/08/25 22:47:57;;;;;;;14.60;6.10;;;;;;;23.67;55.25;98919.42;237079;1192;138796;-59
2022/08/25 22:53:00;;;;;;;16.70;5.90;;;;;;;23.61;55.33;98922.42;237363;1191;139713;-59
2022/08/25 22:58:03;;;;;;;19.80;6.00;;;;;;;23.54;55.37;98919.24;238043;1192;140193;-59
2022/08/25 23:03:07;;;;;;;18.40;6.40;;;;;;;23.46;55.36;98913.20;238506;1192;139332;-59
2022/08/25 23:08:10;;;;;;;16.50;6.20;;;;;;;23.38;55.48;98905.58;238877;1191;139230;-60
2022/08/25 23:13:13;;;;;;;17.20;6.50;;;;;;;23.31;55.50;98898.55;238794;1191;139411;-59
2022/08/25 23:18:37;;;;;;;16.40;5.70;;;;;;;23.23;55.68;98897.33;238904;1192;140691;-59
2022/08/25 23:23:46;;;;;;;16.00;6.30;;;;;;;23.14;55.72;98898.10;237871;1192;139926;-59
2022/08/25 23:28:50;;;;;;;;;;;;;;;23.04;55.80;98896.73;238887;1191;140075;-59
2022/08/25 23:33:53;;;;;;;13.70;5.70;;;;;;;22.95;55.86;98899.73;239139;1190;125367;-59
2022/08/25 23:38:56;;;;;;;21.80;5.90;;;;;;;22.87;56.08;98900.19;238852;1191;139499;-59
2022/08/25 23:43:59;;;;;;;16.10;5.70;;;;;;;22.81;56.17;98897.66;238957;1191;138948;-60
2022/08/25 23:49:05;;;;;;;18.90;5.80;;;;;;;22.76;56.37;98895.04;237254;1190;141805;-59